createdAt,value
2018-12-18T00:00:15.039Z,33.17
2018-12-18T00:02:45.287Z,33.70
2018-12-18T00:08:11.501Z,36.47
2018-12-18T00:10:45.254Z,31.67
2018-12-18T00:13:13.433Z,37.67
2018-12-18T00:15:41.622Z,32.80
2018-12-18T00:18:09.984Z,40.00
2018-12-18T00:20:38.175Z,37.03
2018-12-18T00:23:06.363Z,33.80
2018-12-18T00:25:34.561Z,37.60
2018-12-18T00:28:02.745Z,28.70
2018-12-18T00:30:30.924Z,46.13
2018-12-18T00:32:59.115Z,32.87
2018-12-18T00:35:27.306Z,45.73
2018-12-18T00:37:55.685Z,31.10
2018-12-18T00:40:23.877Z,31.17
2018-12-18T00:42:52.053Z,28.80
2018-12-18T00:45:20.239Z,33.20
2018-12-18T00:47:48.500Z,32.30
2018-12-18T00:50:16.692Z,41.90
2018-12-18T00:52:45.563Z,37.00
2018-12-18T00:55:14.377Z,32.17
2018-12-18T00:57:42.548Z,35.80
2018-12-18T01:00:11.064Z,39.73
2018-12-18T01:02:39.271Z,39.07
2018-12-18T01:05:07.462Z,41.00
2018-12-18T01:07:35.656Z,31.07
2018-12-18T01:10:05.968Z,33.10
2018-12-18T01:12:34.273Z,38.27
2018-12-18T01:15:02.502Z,34.30
2018-12-18T01:17:30.937Z,40.37
2018-12-18T01:19:59.108Z,30.20
2018-12-18T01:22:27.296Z,31.53
2018-12-18T01:24:55.612Z,32.30
2018-12-18T01:27:24.598Z,30.10
2018-12-18T01:29:52.812Z,29.73
2018-12-18T01:32:21.043Z,34.80
2018-12-18T01:34:49.433Z,30.50
2018-12-18T01:37:18.499Z,28.30
2018-12-18T01:39:46.728Z,31.07
2018-12-18T01:42:14.919Z,28.10
2018-12-18T01:44:43.251Z,31.03
2018-12-18T01:47:11.449Z,27.63
2018-12-18T01:49:39.616Z,32.33
2018-12-18T01:52:07.792Z,28.57
2018-12-18T01:54:36.001Z,32.90
2018-12-18T01:57:04.180Z,23.33
2018-12-18T01:59:32.378Z,31.80
2018-12-18T02:02:00.574Z,27.30
2018-12-18T02:04:28.757Z,25.67
2018-12-18T02:06:56.937Z,24.57
2018-12-18T02:09:25.140Z,23.40
2018-12-18T02:11:53.320Z,23.60
2018-12-18T02:14:21.494Z,20.17
2018-12-18T02:16:49.796Z,25.57
2018-12-18T02:19:17.980Z,22.13
2018-12-18T02:21:46.156Z,28.37
2018-12-18T02:24:14.455Z,22.50
2018-12-18T02:26:42.628Z,25.73
2018-12-18T02:29:16.753Z,25.53
2018-12-18T02:31:44.934Z,25.33
2018-12-18T02:34:13.964Z,31.57
2018-12-18T02:36:42.400Z,22.50
2018-12-18T02:39:10.587Z,24.70
2018-12-18T02:41:38.777Z,26.10
2018-12-18T02:44:06.992Z,22.87
2018-12-18T02:46:35.243Z,28.20
2018-12-18T02:49:03.443Z,31.20
2018-12-18T02:51:31.803Z,23.20
2018-12-18T02:53:59.992Z,29.13
2018-12-18T02:56:28.176Z,33.37
2018-12-18T02:58:56.504Z,25.77
2018-12-18T03:01:24.691Z,22.80
2018-12-18T03:03:52.876Z,33.73
2018-12-18T03:06:21.140Z,23.70
2018-12-18T03:08:49.322Z,29.13
2018-12-18T03:11:21.043Z,20.07
2018-12-18T03:13:49.220Z,28.90
2018-12-18T03:16:18.144Z,23.30
2018-12-18T03:18:46.383Z,31.67
2018-12-18T03:21:14.668Z,26.33
2018-12-18T03:23:42.844Z,22.70
2018-12-18T03:26:11.044Z,35.10
2018-12-18T03:28:39.225Z,31.90
2018-12-18T03:31:07.434Z,28.40
2018-12-18T03:33:35.743Z,28.93
2018-12-18T03:36:03.921Z,25.77
2018-12-18T03:38:32.112Z,30.23
2018-12-18T03:41:00.450Z,27.13
2018-12-18T03:43:28.632Z,27.87
2018-12-18T03:45:56.806Z,35.37
2018-12-18T03:48:25.086Z,25.57
2018-12-18T03:50:53.260Z,34.23
2018-12-18T03:53:21.605Z,25.30
2018-12-18T03:55:49.808Z,31.83
2018-12-18T03:58:17.977Z,26.63
2018-12-18T04:00:46.158Z,24.97
2018-12-18T04:03:14.370Z,27.93
2018-12-18T04:05:42.651Z,31.60
2018-12-18T04:08:10.832Z,25.73
2018-12-18T04:10:39.039Z,24.40
2018-12-18T04:13:07.215Z,18.53
2018-12-18T04:15:35.506Z,26.40
2018-12-18T04:18:03.785Z,26.93
2018-12-18T04:20:32.090Z,21.07
2018-12-18T04:23:00.273Z,31.47
2018-12-18T04:25:28.493Z,33.60
2018-12-18T04:27:56.672Z,33.60
2018-12-18T04:30:24.853Z,32.37
2018-12-18T04:32:53.065Z,28.93
2018-12-18T04:35:21.516Z,33.80
2018-12-18T04:37:49.708Z,32.33
2018-12-18T04:40:17.929Z,30.57
2018-12-18T04:42:46.243Z,30.83
2018-12-18T04:45:15.787Z,28.67
2018-12-18T04:47:44.393Z,29.23
2018-12-18T04:50:12.567Z,36.73
2018-12-18T04:52:40.760Z,37.17
2018-12-18T04:55:09.063Z,38.40
2018-12-18T04:57:37.245Z,28.23
2018-12-18T05:00:08.046Z,33.57
2018-12-18T05:02:36.246Z,35.70
2018-12-18T05:05:04.424Z,30.57
2018-12-18T05:07:32.606Z,33.83
2018-12-18T05:10:00.832Z,34.00
2018-12-18T05:12:29.046Z,29.43
2018-12-18T05:14:57.227Z,33.97
2018-12-18T05:17:25.440Z,31.33
2018-12-18T05:19:53.734Z,34.83
2018-12-18T05:22:21.912Z,29.13
2018-12-18T05:24:50.127Z,37.10
2018-12-18T05:27:18.869Z,31.70
2018-12-18T05:29:47.059Z,32.13
2018-12-18T05:32:15.320Z,36.30
2018-12-18T05:34:43.504Z,34.87
2018-12-18T05:37:11.692Z,30.43
2018-12-18T05:39:39.912Z,31.37
2018-12-18T05:42:08.105Z,29.90
2018-12-18T05:44:36.287Z,30.53
2018-12-18T05:47:04.481Z,31.33
2018-12-18T05:49:32.664Z,33.57
2018-12-18T05:52:00.840Z,22.80
2018-12-18T05:54:29.049Z,27.43
2018-12-18T05:56:57.304Z,27.20
2018-12-18T05:59:25.496Z,23.60
2018-12-18T06:01:53.792Z,27.20
2018-12-18T06:04:21.974Z,29.63
2018-12-18T06:06:50.275Z,30.80
2018-12-18T06:09:18.496Z,27.27
2018-12-18T06:11:46.684Z,26.60
2018-12-18T06:14:14.861Z,21.17
2018-12-18T06:16:43.225Z,28.57
2018-12-18T06:19:11.402Z,26.53
2018-12-18T06:21:39.707Z,30.50
2018-12-18T06:24:07.906Z,20.63
2018-12-18T06:26:36.112Z,22.47
2018-12-18T06:29:04.291Z,29.53
2018-12-18T06:31:32.562Z,25.57
2018-12-18T06:34:00.762Z,28.00
2018-12-18T06:36:28.974Z,28.70
2018-12-18T06:38:57.231Z,32.00
2018-12-18T06:41:25.416Z,29.47
2018-12-18T06:43:53.613Z,27.10
2018-12-18T06:46:21.835Z,24.40
2018-12-18T06:48:50.012Z,25.97
2018-12-18T06:51:18.343Z,27.10
2018-12-18T06:53:46.553Z,26.53
2018-12-18T06:56:14.753Z,35.23
2018-12-18T06:58:43.019Z,28.47
2018-12-18T07:01:11.204Z,32.73
2018-12-18T07:03:39.451Z,39.07
2018-12-18T07:06:07.623Z,38.93
2018-12-18T07:08:35.851Z,41.13
2018-12-18T07:11:04.041Z,35.70
2018-12-18T07:13:32.416Z,38.77
2018-12-18T07:16:01.104Z,37.37
2018-12-18T07:18:29.291Z,36.70
2018-12-18T07:20:57.481Z,35.50
2018-12-18T07:23:25.680Z,39.40
2018-12-18T07:25:53.852Z,36.00
2018-12-18T07:28:22.217Z,34.27
2018-12-18T07:30:50.546Z,35.00
2018-12-18T07:33:18.718Z,33.40
2018-12-18T07:35:46.895Z,33.33
2018-12-18T07:38:15.324Z,35.87
2018-12-18T07:40:43.498Z,48.90
2018-12-18T07:43:11.782Z,41.40
2018-12-18T07:45:40.110Z,32.30
2018-12-18T07:48:08.345Z,32.37
2018-12-18T07:50:36.650Z,38.40
2018-12-18T07:53:04.858Z,32.87
2018-12-18T07:55:33.159Z,31.33
2018-12-18T07:58:01.343Z,25.57
2018-12-18T08:00:29.568Z,29.50
2018-12-18T08:02:57.756Z,31.00
2018-12-18T08:05:29.920Z,32.70
2018-12-18T08:07:56.182Z,33.63
2018-12-18T08:10:24.379Z,30.03
2018-12-18T08:12:52.554Z,29.13
2018-12-18T08:15:20.764Z,29.83
2018-12-18T08:17:48.941Z,28.43
2018-12-18T08:20:17.162Z,32.80
2018-12-18T08:22:45.584Z,23.10
2018-12-18T08:25:13.773Z,38.83
2018-12-18T08:27:41.967Z,36.73
2018-12-18T08:30:10.399Z,33.87
2018-12-18T08:32:38.618Z,34.43
2018-12-18T08:35:07.026Z,29.00
2018-12-18T08:37:35.378Z,31.67
2018-12-18T08:40:04.367Z,26.67
2018-12-18T08:42:32.552Z,24.70
2018-12-18T08:45:00.774Z,24.87
2018-12-18T08:47:29.050Z,30.23
2018-12-18T08:49:57.239Z,29.83
2018-12-18T08:52:25.481Z,35.60
2018-12-18T08:54:53.660Z,28.33
2018-12-18T08:57:21.983Z,28.83
2018-12-18T08:59:50.281Z,25.90
2018-12-18T09:02:24.503Z,27.77
2018-12-18T09:04:52.767Z,36.90
2018-12-18T09:07:20.940Z,26.13
2018-12-18T09:09:49.131Z,27.20
2018-12-18T09:12:17.334Z,32.13
2018-12-18T09:14:47.545Z,30.40
2018-12-18T09:17:17.781Z,28.97
2018-12-18T09:19:45.953Z,33.87
2018-12-18T09:22:14.126Z,30.33
2018-12-18T09:24:42.488Z,29.50
2018-12-18T09:27:10.665Z,27.30
2018-12-18T09:29:38.858Z,31.47
2018-12-18T09:32:07.041Z,30.23
2018-12-18T09:34:35.220Z,31.97
2018-12-18T09:37:03.570Z,29.40
2018-12-18T09:39:37.380Z,26.10
2018-12-18T09:42:11.023Z,24.60
2018-12-18T09:44:39.226Z,27.60
2018-12-18T09:47:07.526Z,26.20
2018-12-18T09:49:35.697Z,25.87
2018-12-18T09:52:03.893Z,28.77
2018-12-18T09:54:32.270Z,22.87
2018-12-18T09:57:00.766Z,22.83
2018-12-18T09:59:28.985Z,28.83
2018-12-18T10:01:57.393Z,22.83
2018-12-18T10:04:25.564Z,25.20
2018-12-18T10:06:53.779Z,20.90
2018-12-18T10:09:21.957Z,26.87
2018-12-18T10:11:50.290Z,28.27
2018-12-18T10:14:18.487Z,28.37
2018-12-18T10:16:46.789Z,24.60
2018-12-18T10:19:15.053Z,22.30
2018-12-18T10:21:43.252Z,22.77
2018-12-18T10:24:11.416Z,21.30
2018-12-18T10:26:39.588Z,21.63
2018-12-18T10:29:07.840Z,31.50
2018-12-18T10:31:36.002Z,49.83
2018-12-18T10:34:04.164Z,32.23
2018-12-18T10:36:32.364Z,22.40
2018-12-18T10:39:00.550Z,24.90
2018-12-18T10:41:28.728Z,23.03
2018-12-18T10:43:56.946Z,20.13
2018-12-18T10:46:25.121Z,19.70
2018-12-18T10:48:53.420Z,21.60
2018-12-18T10:51:21.960Z,25.07
2018-12-18T10:53:50.154Z,23.90
2018-12-18T10:56:18.412Z,24.37
2018-12-18T10:58:46.835Z,20.60
2018-12-18T11:01:17.044Z,28.23
2018-12-18T11:03:45.217Z,24.50
2018-12-18T11:06:13.424Z,32.30
2018-12-18T11:08:41.630Z,27.10
2018-12-18T11:11:10.040Z,26.60
2018-12-18T11:13:38.247Z,26.97
2018-12-18T11:16:06.444Z,26.20
2018-12-18T11:18:34.632Z,25.20
2018-12-18T11:21:02.834Z,26.10
2018-12-18T11:23:31.011Z,26.73
2018-12-18T11:25:59.189Z,25.33
2018-12-18T11:28:27.404Z,25.10
2018-12-18T11:30:55.598Z,26.57
2018-12-18T11:33:23.766Z,33.47
2018-12-18T11:35:51.964Z,36.77
2018-12-18T11:38:20.154Z,33.30
2018-12-18T11:40:48.337Z,29.00
2018-12-18T11:43:16.536Z,33.03
2018-12-18T11:45:44.723Z,27.00
2018-12-18T11:48:12.914Z,28.70
2018-12-18T11:50:41.257Z,27.27
2018-12-18T11:53:09.430Z,29.03
2018-12-18T11:55:37.645Z,29.70
2018-12-18T11:58:05.844Z,29.47
2018-12-18T12:00:34.040Z,31.30
2018-12-18T12:03:02.398Z,30.00
2018-12-18T12:05:30.628Z,29.77
2018-12-18T12:07:58.807Z,31.40
2018-12-18T12:10:27.001Z,35.43
2018-12-18T12:12:55.206Z,34.27
2018-12-18T12:15:23.380Z,33.60
2018-12-18T12:17:51.891Z,35.27
2018-12-18T12:20:20.106Z,42.83
2018-12-18T12:22:48.280Z,30.83
2018-12-18T12:25:16.470Z,35.63
2018-12-18T12:27:50.218Z,30.60
2018-12-18T12:30:18.400Z,31.67
2018-12-18T12:32:46.590Z,31.60
2018-12-18T12:35:14.870Z,31.30
2018-12-18T12:37:43.054Z,30.37
2018-12-18T12:40:11.238Z,31.30
2018-12-18T12:42:39.470Z,31.50
2018-12-18T12:45:08.364Z,30.17
2018-12-18T12:47:36.555Z,27.33
2018-12-18T12:50:06.368Z,30.03
2018-12-18T12:52:34.541Z,34.03
2018-12-18T12:55:02.859Z,29.40
2018-12-18T12:57:31.078Z,30.17
2018-12-18T12:59:59.260Z,27.60
2018-12-18T13:02:27.445Z,30.20
2018-12-18T13:04:55.668Z,28.83
2018-12-18T13:07:23.858Z,29.87
2018-12-18T13:09:52.045Z,32.90
2018-12-18T13:12:20.312Z,29.30
2018-12-18T13:14:48.501Z,29.70
2018-12-18T13:17:16.681Z,29.77
2018-12-18T13:19:44.873Z,30.17
2018-12-18T13:22:13.087Z,29.23
2018-12-18T13:24:41.266Z,31.73
2018-12-18T13:27:09.500Z,30.27
2018-12-18T13:29:38.117Z,35.70
2018-12-18T13:32:06.827Z,28.77
2018-12-18T13:34:35.235Z,30.03
2018-12-18T13:37:03.409Z,30.20
2018-12-18T13:39:31.734Z,29.77
2018-12-18T13:42:00.039Z,34.47
2018-12-18T13:44:28.402Z,30.57
2018-12-18T13:46:56.579Z,29.70
2018-12-18T13:49:24.776Z,31.53
2018-12-18T13:51:53.041Z,34.50
2018-12-18T13:54:21.218Z,28.57
2018-12-18T13:56:49.513Z,28.33
2018-12-18T13:59:17.692Z,28.20
2018-12-18T14:01:45.874Z,32.73
2018-12-18T14:04:14.141Z,32.00
2018-12-18T14:06:42.313Z,33.20
2018-12-18T14:09:10.498Z,32.73
2018-12-18T14:11:38.768Z,33.90
2018-12-18T14:14:06.957Z,35.60
2018-12-18T14:16:35.131Z,30.07
2018-12-18T14:19:03.416Z,32.33
2018-12-18T14:21:31.607Z,32.27
2018-12-18T14:23:59.801Z,29.60
2018-12-18T14:26:28.001Z,26.83
2018-12-18T14:28:56.261Z,30.00
2018-12-18T14:31:24.462Z,30.60
2018-12-18T14:33:52.834Z,38.07
2018-12-18T14:36:21.015Z,36.90
2018-12-18T14:38:49.296Z,30.23
2018-12-18T14:41:17.497Z,28.43
2018-12-18T14:43:45.676Z,34.53
2018-12-18T14:46:13.847Z,30.57
2018-12-18T14:48:42.089Z,37.27
2018-12-18T14:51:10.270Z,35.30
2018-12-18T14:53:38.443Z,39.20
2018-12-18T14:56:06.652Z,39.57
2018-12-18T14:58:34.823Z,33.60
2018-12-18T15:01:02.997Z,33.50
2018-12-18T15:03:31.186Z,36.03
2018-12-18T15:05:59.347Z,38.43
2018-12-18T15:08:27.523Z,39.03
2018-12-18T15:10:55.731Z,31.57
2018-12-18T15:13:23.907Z,38.30
2018-12-18T15:15:52.101Z,38.07
2018-12-18T15:18:20.330Z,34.50
2018-12-18T15:20:48.498Z,32.77
2018-12-18T15:23:16.696Z,36.47
2018-12-18T15:25:44.900Z,39.30
2018-12-18T15:28:15.586Z,40.50
2018-12-18T15:30:43.759Z,41.00
2018-12-18T15:33:11.968Z,36.80
2018-12-18T15:35:40.133Z,34.43
2018-12-18T15:38:08.313Z,35.90
2018-12-18T15:40:36.844Z,39.67
2018-12-18T15:43:05.004Z,40.37
2018-12-18T15:45:33.182Z,41.83
2018-12-18T15:48:01.386Z,40.23
2018-12-18T15:50:29.556Z,60.97
2018-12-18T15:52:57.725Z,55.83
2018-12-18T15:55:25.983Z,54.53
2018-12-18T15:57:54.151Z,67.10
2018-12-18T16:00:22.330Z,64.40
2018-12-18T16:02:50.613Z,41.13
2018-12-18T16:05:18.837Z,35.80
2018-12-18T16:07:47.036Z,29.90
2018-12-18T16:10:15.243Z,28.63
2018-12-18T16:12:44.734Z,31.70
2018-12-18T16:15:13.011Z,29.17
2018-12-18T16:17:41.780Z,32.50
2018-12-18T16:20:10.280Z,28.60
2018-12-18T16:22:38.469Z,30.73
2018-12-18T16:25:06.996Z,34.57
2018-12-18T16:27:35.246Z,29.93
2018-12-18T16:30:04.270Z,27.23
2018-12-18T16:32:32.458Z,25.23
2018-12-18T16:35:00.666Z,27.70
2018-12-18T16:37:28.852Z,27.50
2018-12-18T16:39:57.056Z,31.93
2018-12-18T16:42:25.382Z,30.93
2018-12-18T16:44:53.664Z,33.53
2018-12-18T16:47:21.848Z,26.87
2018-12-18T16:49:50.029Z,28.57
2018-12-18T16:52:18.227Z,30.80
2018-12-18T16:54:46.554Z,25.80
2018-12-18T16:57:14.757Z,28.07
2018-12-18T16:59:42.933Z,27.97
2018-12-18T17:02:11.196Z,27.50
2018-12-18T17:04:39.379Z,31.17
2018-12-18T17:07:07.685Z,26.20
2018-12-18T17:09:35.890Z,31.87
2018-12-18T17:12:04.078Z,29.10
2018-12-18T17:14:32.259Z,32.43
2018-12-18T17:17:00.577Z,28.67
2018-12-18T17:19:28.930Z,29.03
2018-12-18T17:21:57.104Z,31.00
2018-12-18T17:24:25.304Z,32.97
2018-12-18T17:26:53.485Z,27.27
2018-12-18T17:29:21.656Z,35.83
2018-12-18T17:31:49.854Z,36.23
2018-12-18T17:34:18.153Z,33.60
2018-12-18T17:36:46.417Z,39.87
2018-12-18T17:39:14.831Z,38.70
2018-12-18T17:41:43.014Z,31.87
2018-12-18T17:44:11.185Z,40.70
2018-12-18T17:46:39.558Z,40.03
2018-12-18T17:49:07.849Z,37.57
2018-12-18T17:51:36.028Z,33.23
2018-12-18T17:54:04.241Z,30.87
2018-12-18T17:56:32.704Z,35.83
2018-12-18T17:59:00.878Z,31.77
2018-12-18T18:01:29.222Z,28.87
2018-12-18T18:03:57.405Z,34.07
2018-12-18T18:06:26.375Z,30.30
2018-12-18T18:08:54.580Z,32.63
2018-12-18T18:11:22.750Z,27.80
2018-12-18T18:13:50.934Z,33.57
2018-12-18T18:16:19.199Z,32.77
2018-12-18T18:18:47.475Z,40.73
2018-12-18T18:21:15.670Z,32.00
2018-12-18T18:23:43.856Z,31.60
2018-12-18T18:26:12.958Z,35.97
2018-12-18T18:28:41.136Z,38.93
2018-12-18T18:31:09.369Z,44.33
2018-12-18T18:33:37.636Z,37.73
2018-12-18T18:36:05.918Z,35.37
2018-12-18T18:38:34.127Z,29.00
2018-12-18T18:41:02.309Z,41.93
2018-12-18T18:43:30.482Z,28.10
2018-12-18T18:45:58.695Z,34.80
2018-12-18T18:48:26.869Z,32.20
2018-12-18T18:50:55.046Z,27.73
2018-12-18T18:53:23.347Z,30.37
2018-12-18T18:55:51.533Z,29.17
2018-12-18T18:58:19.794Z,34.77
2018-12-18T19:00:48.070Z,33.60
2018-12-18T19:03:16.241Z,30.17
2018-12-18T19:05:44.421Z,27.97
2018-12-18T19:08:12.606Z,32.40
2018-12-18T19:10:40.846Z,29.40
2018-12-18T19:13:09.026Z,31.93
2018-12-18T19:15:37.299Z,34.00
2018-12-18T19:18:05.468Z,32.00
2018-12-18T19:20:33.647Z,27.40
2018-12-18T19:23:01.869Z,27.73
2018-12-18T19:25:30.049Z,27.50
2018-12-18T19:27:58.236Z,27.60
2018-12-18T19:30:26.471Z,28.30
2018-12-18T19:32:54.644Z,31.77
2018-12-18T19:35:22.852Z,26.57
2018-12-18T19:37:51.075Z,26.17
2018-12-18T19:40:19.270Z,21.10
2018-12-18T19:42:47.544Z,24.70
2018-12-18T19:45:15.750Z,27.57
2018-12-18T19:47:43.928Z,26.43
2018-12-18T19:50:12.199Z,24.97
2018-12-18T19:52:40.418Z,26.67
2018-12-18T19:55:08.606Z,29.80
2018-12-18T19:57:36.792Z,27.80
2018-12-18T20:00:09.888Z,26.27
2018-12-18T20:02:38.058Z,26.33
2018-12-18T20:05:06.781Z,23.77
2018-12-18T20:07:35.018Z,26.17
2018-12-18T20:10:03.406Z,28.63
2018-12-18T20:12:31.674Z,29.87
2018-12-18T20:14:59.880Z,26.33
2018-12-18T20:17:28.327Z,28.17
2018-12-18T20:19:56.534Z,34.80
2018-12-18T20:22:25.288Z,32.57
2018-12-18T20:24:53.467Z,34.57
2018-12-18T20:27:21.643Z,27.13
2018-12-18T20:29:50.367Z,29.43
2018-12-18T20:32:18.555Z,28.77
2018-12-18T20:34:46.731Z,29.63
2018-12-18T20:37:18.215Z,32.90
2018-12-18T20:39:45.446Z,27.60
2018-12-18T20:42:13.621Z,33.70
2018-12-18T20:44:41.813Z,28.97
2018-12-18T20:47:10.213Z,27.07
2018-12-18T20:49:38.531Z,31.00
2018-12-18T20:52:06.722Z,35.73
2018-12-18T20:54:34.984Z,33.63
2018-12-18T20:57:03.267Z,39.27
2018-12-18T20:59:31.499Z,41.03
2018-12-18T21:01:59.997Z,43.33
2018-12-18T21:04:28.430Z,33.50
2018-12-18T21:06:56.614Z,35.57
2018-12-18T21:09:24.784Z,29.87
2018-12-18T21:11:53.105Z,27.03
2018-12-18T21:14:21.301Z,30.20
2018-12-18T21:16:49.484Z,43.00
2018-12-18T21:19:17.809Z,47.20
2018-12-18T21:21:46.080Z,45.43
2018-12-18T21:24:14.363Z,48.63
2018-12-18T21:26:42.644Z,58.53
2018-12-18T21:29:10.843Z,53.37
2018-12-18T21:31:39.021Z,47.90
2018-12-18T21:34:07.200Z,44.43
2018-12-18T21:36:35.413Z,53.17
2018-12-18T21:39:05.691Z,48.87
2018-12-18T21:41:33.870Z,55.37
2018-12-18T21:44:02.214Z,52.27
2018-12-18T21:46:30.398Z,53.77
2018-12-18T21:48:58.672Z,55.20
2018-12-18T21:51:26.887Z,42.90
2018-12-18T21:53:55.069Z,45.50
2018-12-18T21:56:23.321Z,41.73
2018-12-18T21:58:51.509Z,41.60
2018-12-18T22:01:19.693Z,37.00
2018-12-18T22:03:47.870Z,38.63
2018-12-18T22:06:16.145Z,36.23
2018-12-18T22:08:44.329Z,37.87
2018-12-18T22:11:12.606Z,35.10
2018-12-18T22:13:40.817Z,33.63
2018-12-18T22:16:09.057Z,28.70
2018-12-18T22:18:37.240Z,29.97
2018-12-18T22:21:05.526Z,29.00
2018-12-18T22:23:33.702Z,35.67
2018-12-18T22:26:01.870Z,33.97
2018-12-18T22:28:30.245Z,35.80
2018-12-18T22:30:58.417Z,29.20
2018-12-18T22:33:26.588Z,33.80
2018-12-18T22:35:54.794Z,31.87
2018-12-18T22:38:22.977Z,29.90
2018-12-18T22:40:51.219Z,29.97
2018-12-18T22:43:19.421Z,28.50
2018-12-18T22:45:47.698Z,25.00
2018-12-18T22:48:15.878Z,20.37
2018-12-18T22:50:44.184Z,28.60
2018-12-18T22:53:12.370Z,23.50
2018-12-18T22:55:44.843Z,27.87
2018-12-18T22:58:10.855Z,26.27
2018-12-18T23:00:44.710Z,26.33
2018-12-18T23:03:12.910Z,26.10
2018-12-18T23:05:41.071Z,27.87
2018-12-18T23:08:09.378Z,23.60
2018-12-18T23:10:37.832Z,22.83
2018-12-18T23:13:05.993Z,28.63
2018-12-18T23:15:34.172Z,23.73
2018-12-18T23:18:02.368Z,24.60
2018-12-18T23:20:30.674Z,23.87
2018-12-18T23:22:58.857Z,35.40
2018-12-18T23:25:27.069Z,30.60
2018-12-18T23:27:55.261Z,26.17
2018-12-18T23:30:23.433Z,27.43
2018-12-18T23:32:51.656Z,23.90
2018-12-18T23:35:19.837Z,25.33
2018-12-18T23:37:48.029Z,24.93
2018-12-18T23:40:16.222Z,26.47
2018-12-18T23:42:44.391Z,24.30
2018-12-18T23:45:12.559Z,25.47
2018-12-18T23:47:40.764Z,22.13
2018-12-18T23:50:09.037Z,20.40
2018-12-18T23:52:37.212Z,26.03
2018-12-18T23:55:05.876Z,20.00
2018-12-18T23:57:34.045Z,22.17
